Buoy 52514

sailwx.info

Track history (hours):
 
Tides and Currents Weather Stations Pressure Air Temp Water Temp Dewpoint Dewpoint Depression Visibility Wind Speed Wind Dir Waves Ship Positions

Drifting buoy 52514

Last reported at 2016-May-03 13:00 UTC. Time now 2016-May-03 18:17 UTC.
Position N 19°51' E 130°53'.

Date/timePositionNaut miles runAvg speedWind from/ knotsBaromVisibWave heightAir tempDewpointWater temp
2016-May-03 13:00N 19°51' E 130°53'6 1.5
2016-May-03 09:00N 19°53' E 130°47'2 2.4
2016-May-03 08:00N 19°52' E 130°44'0 0.0
2016-May-03 07:00N 19°52' E 130°44'2 0.8
2016-May-03 05:00N 19°53' E 130°42'1 0.3
2016-May-03 02:00N 19°53' E 130°42'0 0.0
2016-May-03 01:00N 19°53' E 130°42'0 0.0
2016-May-03 00:00N 19°53' E 130°42'2 1.7
2016-May-02 23:00N 19°54' E 130°40'0 0.0
2016-May-02 22:00N 19°54' E 130°40'1 1.2
2016-May-02 21:00N 19°55' E 130°39'2 1.7
2016-May-02 20:00N 19°56' E 130°38'0 0.0
2016-May-02 19:00N 19°56' E 130°38'0 0.1
2016-May-02 18:00N 19°56' E 130°38'0 0.0
2016-May-02 17:00N 19°56' E 130°38'4 4.2
2016-May-02 16:00N 19°56' E 130°33'2 0.3
2016-May-02 10:00N 19°58' E 130°32'3 2.6
2016-May-02 09:00N 19°57' E 130°29'2 0.5
2016-May-02 05:00N 19°57' E 130°27'0 0.0
2016-May-02 01:00N 19°57' E 130°27'1 0.3
2016-May-01 22:00N 19°58' E 130°26'0 0.2
2016-May-01 21:00N 19°58' E 130°26'0 0.1
2016-May-01 20:00N 19°58' E 130°26'0 0.4
2016-May-01 19:00N 19°58' E 130°26'1 0.7
2016-May-01 18:00N 19°58' E 130°26'4 0.7
2016-May-01 13:00N 19°59' E 130°23'1 0.8
2016-May-01 12:00N 19°60' E 130°22'1 1.5
2016-May-01 11:00N 20°01' E 130°21'0 0.1
2016-May-01 10:00N 20°01' E 130°21'0 0.4
2016-May-01 09:00N 20°01' E 130°21'0 0.3
2016-May-01 08:00N 20°01' E 130°20'1 0.4
2016-May-01 06:00N 20°01' E 130°20'0 0.2
2016-May-01 04:00N 20°01' E 130°19'1 0.4
2016-May-01 02:00N 20°01' E 130°18'0 0.2
2016-May-01 01:00N 20°01' E 130°18'1 0.6
2016-May-01 00:00N 20°01' E 130°17'1 0.4
2016-Apr-30 22:00N 20°01' E 130°17'0 0.3
2016-Apr-30 21:00N 20°01' E 130°16'0 0.2
2016-Apr-30 20:00N 20°01' E 130°16'0 0.0
2016-Apr-30 19:00N 20°01' E 130°16'0 0.2
2016-Apr-30 18:00N 20°02' E 130°16'0 0.5
2016-Apr-30 17:00N 20°02' E 130°16'0 0.0
2016-Apr-30 16:00N 20°02' E 130°16'3 0.7
2016-Apr-30 12:00N 20°02' E 130°13'0 0.1
2016-Apr-30 11:00N 20°02' E 130°13'2 1.2
2016-Apr-30 09:00N 20°02' E 130°10'1 0.9
2016-Apr-30 08:00N 20°01' E 130°11'0 0.0
2016-Apr-30 07:00N 20°01' E 130°11'0 0.4
2016-Apr-30 06:00N 20°01' E 130°11'0 0.0
2016-Apr-30 05:00N 20°01' E 130°11'0 0.0
2016-Apr-30 04:00N 20°01' E 130°11'1 0.4
2016-Apr-30 02:00N 20°01' E 130°12'1 0.5
2016-Apr-30 01:00N 20°01' E 130°11'0 0.1
2016-Apr-30 00:00N 20°01' E 130°11'0 0.4
2016-Apr-29 23:00N 20°01' E 130°11'0 0.1
2016-Apr-29 22:00N 20°01' E 130°11'0 0.2
2016-Apr-29 21:00N 20°01' E 130°11'2 0.8
2016-Apr-29 19:00N 20°02' E 130°12'0 0.3
2016-Apr-29 18:00N 20°02' E 130°12'0 0.3
2016-Apr-29 17:00N 20°03' E 130°12'0 0.0
2016-Apr-29 16:00N 20°03' E 130°12'2 0.7
2016-Apr-29 13:00N 20°05' E 130°11'1 0.8
2016-Apr-29 12:00N 20°05' E 130°11'1 0.7
2016-Apr-29 10:00N 20°07' E 130°10'3 2.6
2016-Apr-29 09:00N 20°08' E 130°07'1 0.3
2016-Apr-29 07:00N 20°07' E 130°07'0 0.4
2016-Apr-29 06:00N 20°07' E 130°07'0 0.0
2016-Apr-29 04:00N 20°07' E 130°07'2 0.7
2016-Apr-29 01:00N 20°08' E 130°05'0 0.5
2016-Apr-29 00:00N 20°08' E 130°04'1 0.6
2016-Apr-28 22:00N 20°08' E 130°03'0 0.2
2016-Apr-28 20:00N 20°08' E 130°03'1 0.6
2016-Apr-28 19:00N 20°09' E 130°03'0 0.0
2016-Apr-28 18:00N 20°09' E 130°03'3 0.4
2016-Apr-28 11:00N 20°11' E 130°01'3 2.9
2016-Apr-28 10:00N 20°13' E 129°58'2 1.2
2016-Apr-28 08:00N 20°14' E 129°56'3 1.6
2016-Apr-28 06:00N 20°14' E 129°53'0 0.0
2016-Apr-28 05:00N 20°14' E 129°53'3 1.2
2016-Apr-28 02:00N 20°14' E 129°49'1 0.4
2016-Apr-27 23:00N 20°14' E 129°48'0 0.3
2016-Apr-27 22:00N 20°14' E 129°48'1 0.3
2016-Apr-27 20:00N 20°14' E 129°47'1 0.8
2016-Apr-27 19:00N 20°15' E 129°46'0 0.0
2016-Apr-27 17:00N 20°15' E 129°46'5 0.9
2016-Apr-27 12:00N 20°13' E 129°42'1 1.3
2016-Apr-27 11:00N 20°11' E 129°42'0 0.1
2016-Apr-27 10:00N 20°12' E 129°42'0 0.0
2016-Apr-27 09:00N 20°12' E 129°42'1 0.6
2016-Apr-27 08:00N 20°11' E 129°41'1 0.4
2016-Apr-27 06:00N 20°11' E 129°40'0 0.0
2016-Apr-27 05:00N 20°11' E 129°40'2 0.6
2016-Apr-27 01:00N 20°10' E 129°38'1 1.0
2016-Apr-27 00:00N 20°09' E 129°38'1 0.7
2016-Apr-26 23:00N 20°09' E 129°38'0 0.5
2016-Apr-26 22:00N 20°08' E 129°39'0 0.1
2016-Apr-26 21:00N 20°08' E 129°39'1 0.4
2016-Apr-26 18:00N 20°09' E 129°38'2 0.4
2016-Apr-26 13:00N 20°09' E 129°36'1 0.7
2016-Apr-26 12:00N 20°08' E 129°36'0 0.2
2016-Apr-26 10:00N 20°08' E 129°35'1 0.7
2016-Apr-26 09:00N 20°07' E 129°35'0 0.1
2016-Apr-26 08:00N 20°07' E 129°35'3 1.1
2016-Apr-26 05:00N 20°07' E 129°32'0 0.1
2016-Apr-26 02:00N 20°07' E 129°32'1 0.5
2016-Apr-26 01:00N 20°06' E 129°32'3 1.1
2016-Apr-25 22:00N 20°03' E 129°32'0 0.5
2016-Apr-25 21:00N 20°03' E 129°33'0 0.2
2016-Apr-25 20:00N 20°03' E 129°32'1 0.6
2016-Apr-25 18:00N 20°02' E 129°34'0 0.0
2016-Apr-25 17:00N 20°02' E 129°34'1 0.4
2016-Apr-25 13:00N 20°01' E 129°34'0 0.4
2016-Apr-25 12:00N 20°00' E 129°34'2 0.8
2016-Apr-25 10:00N 19°60' E 129°36'1 0.5
2016-Apr-25 09:00N 19°60' E 129°35'1 0.1
2016-Apr-25 05:00N 20°00' E 129°36'2 0.5
2016-Apr-25 01:00N 19°59' E 129°34'3 2.6
2016-Apr-25 00:00N 19°56' E 129°35'0 0.0
2016-Apr-24 23:00N 19°56' E 129°35'0 0.0
2016-Apr-24 22:00N 19°56' E 129°35'1 0.8
2016-Apr-24 21:00N 19°56' E 129°35'0 0.4
2016-Apr-24 20:00N 19°56' E 129°36'1 0.6
2016-Apr-24 18:00N 19°55' E 129°37'0 0.0
2016-Apr-24 17:00N 19°55' E 129°37'2 0.5
2016-Apr-24 13:00N 19°53' E 129°38'1 0.6
2016-Apr-24 12:00N 19°53' E 129°37'1 0.7
2016-Apr-24 11:00N 19°52' E 129°38'1 0.7
2016-Apr-24 10:00N 19°52' E 129°38'1 0.6
2016-Apr-24 09:00N 19°51' E 129°39'1 0.6
2016-Apr-24 08:00N 19°51' E 129°39'1 1.1
2016-Apr-24 07:00N 19°51' E 129°40'3 1.4
2016-Apr-24 05:00N 19°48' E 129°40'1 0.2
2016-Apr-24 01:00N 19°47' E 129°41'0 0.0
2016-Apr-24 00:00N 19°47' E 129°41'3 1.3
2016-Apr-23 22:00N 19°45' E 129°42'0 0.4
2016-Apr-23 21:00N 19°45' E 129°42'2 0.5
2016-Apr-23 18:00N 19°44' E 129°44'0 0.0
2016-Apr-23 17:00N 19°44' E 129°44'3 3.2
2016-Apr-23 16:00N 19°43' E 129°46'  
Track history (hours):
 
Tides and Currents Weather Stations Pressure Air Temp Water Temp Dewpoint Dewpoint Depression Visibility Wind Speed Wind Dir Waves Ship Positions

Drifting buoy 52514

Last reported at 2016-May-03 13:00 UTC. Time now 2016-May-03 18:17 UTC.
Position N 19°51' E 130°53'.

Date/timePositionNaut miles runAvg speedWind from/ knotsBaromVisibWave heightAir tempDewpointWater temp
2016-May-03 13:00N 19°51' E 130°53'6 1.5
2016-May-03 09:00N 19°53' E 130°47'2 2.4
2016-May-03 08:00N 19°52' E 130°44'0 0.0
2016-May-03 07:00N 19°52' E 130°44'2 0.8
2016-May-03 05:00N 19°53' E 130°42'1 0.3
2016-May-03 02:00N 19°53' E 130°42'0 0.0
2016-May-03 01:00N 19°53' E 130°42'0 0.0
2016-May-03 00:00N 19°53' E 130°42'2 1.7
2016-May-02 23:00N 19°54' E 130°40'0 0.0
2016-May-02 22:00N 19°54' E 130°40'1 1.2
2016-May-02 21:00N 19°55' E 130°39'2 1.7
2016-May-02 20:00N 19°56' E 130°38'0 0.0
2016-May-02 19:00N 19°56' E 130°38'0 0.1
2016-May-02 18:00N 19°56' E 130°38'0 0.0
2016-May-02 17:00N 19°56' E 130°38'4 4.2
2016-May-02 16:00N 19°56' E 130°33'2 0.3
2016-May-02 10:00N 19°58' E 130°32'3 2.6
2016-May-02 09:00N 19°57' E 130°29'2 0.5
2016-May-02 05:00N 19°57' E 130°27'0 0.0
2016-May-02 01:00N 19°57' E 130°27'1 0.3
2016-May-01 22:00N 19°58' E 130°26'0 0.2
2016-May-01 21:00N 19°58' E 130°26'0 0.1
2016-May-01 20:00N 19°58' E 130°26'0 0.4
2016-May-01 19:00N 19°58' E 130°26'1 0.7
2016-May-01 18:00N 19°58' E 130°26'4 0.7
2016-May-01 13:00N 19°59' E 130°23'1 0.8
2016-May-01 12:00N 19°60' E 130°22'1 1.5
2016-May-01 11:00N 20°01' E 130°21'0 0.1
2016-May-01 10:00N 20°01' E 130°21'0 0.4
2016-May-01 09:00N 20°01' E 130°21'0 0.3
2016-May-01 08:00N 20°01' E 130°20'1 0.4
2016-May-01 06:00N 20°01' E 130°20'0 0.2
2016-May-01 04:00N 20°01' E 130°19'1 0.4
2016-May-01 02:00N 20°01' E 130°18'0 0.2
2016-May-01 01:00N 20°01' E 130°18'1 0.6
2016-May-01 00:00N 20°01' E 130°17'1 0.4
2016-Apr-30 22:00N 20°01' E 130°17'0 0.3
2016-Apr-30 21:00N 20°01' E 130°16'0 0.2
2016-Apr-30 20:00N 20°01' E 130°16'0 0.0
2016-Apr-30 19:00N 20°01' E 130°16'0 0.2
2016-Apr-30 18:00N 20°02' E 130°16'0 0.5
2016-Apr-30 17:00N 20°02' E 130°16'0 0.0
2016-Apr-30 16:00N 20°02' E 130°16'3 0.7
2016-Apr-30 12:00N 20°02' E 130°13'0 0.1
2016-Apr-30 11:00N 20°02' E 130°13'2 1.2
2016-Apr-30 09:00N 20°02' E 130°10'1 0.9
2016-Apr-30 08:00N 20°01' E 130°11'0 0.0
2016-Apr-30 07:00N 20°01' E 130°11'0 0.4
2016-Apr-30 06:00N 20°01' E 130°11'0 0.0
2016-Apr-30 05:00N 20°01' E 130°11'0 0.0
2016-Apr-30 04:00N 20°01' E 130°11'1 0.4
2016-Apr-30 02:00N 20°01' E 130°12'1 0.5
2016-Apr-30 01:00N 20°01' E 130°11'0 0.1
2016-Apr-30 00:00N 20°01' E 130°11'0 0.4
2016-Apr-29 23:00N 20°01' E 130°11'0 0.1
2016-Apr-29 22:00N 20°01' E 130°11'0 0.2
2016-Apr-29 21:00N 20°01' E 130°11'2 0.8
2016-Apr-29 19:00N 20°02' E 130°12'0 0.3
2016-Apr-29 18:00N 20°02' E 130°12'0 0.3
2016-Apr-29 17:00N 20°03' E 130°12'0 0.0
2016-Apr-29 16:00N 20°03' E 130°12'2 0.7
2016-Apr-29 13:00N 20°05' E 130°11'1 0.8
2016-Apr-29 12:00N 20°05' E 130°11'1 0.7
2016-Apr-29 10:00N 20°07' E 130°10'3 2.6
2016-Apr-29 09:00N 20°08' E 130°07'1 0.3
2016-Apr-29 07:00N 20°07' E 130°07'0 0.4
2016-Apr-29 06:00N 20°07' E 130°07'0 0.0
2016-Apr-29 04:00N 20°07' E 130°07'2 0.7
2016-Apr-29 01:00N 20°08' E 130°05'0 0.5
2016-Apr-29 00:00N 20°08' E 130°04'1 0.6
2016-Apr-28 22:00N 20°08' E 130°03'0 0.2
2016-Apr-28 20:00N 20°08' E 130°03'1 0.6
2016-Apr-28 19:00N 20°09' E 130°03'0 0.0
2016-Apr-28 18:00N 20°09' E 130°03'3 0.4
2016-Apr-28 11:00N 20°11' E 130°01'3 2.9
2016-Apr-28 10:00N 20°13' E 129°58'2 1.2
2016-Apr-28 08:00N 20°14' E 129°56'3 1.6
2016-Apr-28 06:00N 20°14' E 129°53'0 0.0
2016-Apr-28 05:00N 20°14' E 129°53'3 1.2
2016-Apr-28 02:00N 20°14' E 129°49'1 0.4
2016-Apr-27 23:00N 20°14' E 129°48'0 0.3
2016-Apr-27 22:00N 20°14' E 129°48'1 0.3
2016-Apr-27 20:00N 20°14' E 129°47'1 0.8
2016-Apr-27 19:00N 20°15' E 129°46'0 0.0
2016-Apr-27 17:00N 20°15' E 129°46'5 0.9
2016-Apr-27 12:00N 20°13' E 129°42'1 1.3
2016-Apr-27 11:00N 20°11' E 129°42'0 0.1
2016-Apr-27 10:00N 20°12' E 129°42'0 0.0
2016-Apr-27 09:00N 20°12' E 129°42'1 0.6
2016-Apr-27 08:00N 20°11' E 129°41'1 0.4
2016-Apr-27 06:00N 20°11' E 129°40'0 0.0
2016-Apr-27 05:00N 20°11' E 129°40'2 0.6
2016-Apr-27 01:00N 20°10' E 129°38'1 1.0
2016-Apr-27 00:00N 20°09' E 129°38'1 0.7
2016-Apr-26 23:00N 20°09' E 129°38'0 0.5
2016-Apr-26 22:00N 20°08' E 129°39'0 0.1
2016-Apr-26 21:00N 20°08' E 129°39'1 0.4
2016-Apr-26 18:00N 20°09' E 129°38'2 0.4
2016-Apr-26 13:00N 20°09' E 129°36'1 0.7
2016-Apr-26 12:00N 20°08' E 129°36'0 0.2
2016-Apr-26 10:00N 20°08' E 129°35'1 0.7
2016-Apr-26 09:00N 20°07' E 129°35'0 0.1
2016-Apr-26 08:00N 20°07' E 129°35'3 1.1
2016-Apr-26 05:00N 20°07' E 129°32'0 0.1
2016-Apr-26 02:00N 20°07' E 129°32'1 0.5
2016-Apr-26 01:00N 20°06' E 129°32'3 1.1
2016-Apr-25 22:00N 20°03' E 129°32'0 0.5
2016-Apr-25 21:00N 20°03' E 129°33'0 0.2
2016-Apr-25 20:00N 20°03' E 129°32'1 0.6
2016-Apr-25 18:00N 20°02' E 129°34'0 0.0
2016-Apr-25 17:00N 20°02' E 129°34'1 0.4
2016-Apr-25 13:00N 20°01' E 129°34'0 0.4
2016-Apr-25 12:00N 20°00' E 129°34'2 0.8
2016-Apr-25 10:00N 19°60' E 129°36'1 0.5
2016-Apr-25 09:00N 19°60' E 129°35'1 0.1
2016-Apr-25 05:00N 20°00' E 129°36'2 0.5
2016-Apr-25 01:00N 19°59' E 129°34'3 2.6
2016-Apr-25 00:00N 19°56' E 129°35'0 0.0
2016-Apr-24 23:00N 19°56' E 129°35'0 0.0
2016-Apr-24 22:00N 19°56' E 129°35'1 0.8
2016-Apr-24 21:00N 19°56' E 129°35'0 0.4
2016-Apr-24 20:00N 19°56' E 129°36'1 0.6
2016-Apr-24 18:00N 19°55' E 129°37'0 0.0
2016-Apr-24 17:00N 19°55' E 129°37'2 0.5
2016-Apr-24 13:00N 19°53' E 129°38'1 0.6
2016-Apr-24 12:00N 19°53' E 129°37'1 0.7
2016-Apr-24 11:00N 19°52' E 129°38'1 0.7
2016-Apr-24 10:00N 19°52' E 129°38'1 0.6
2016-Apr-24 09:00N 19°51' E 129°39'1 0.6
2016-Apr-24 08:00N 19°51' E 129°39'1 1.1
2016-Apr-24 07:00N 19°51' E 129°40'3 1.4
2016-Apr-24 05:00N 19°48' E 129°40'1 0.2
2016-Apr-24 01:00N 19°47' E 129°41'0 0.0
2016-Apr-24 00:00N 19°47' E 129°41'3 1.3
2016-Apr-23 22:00N 19°45' E 129°42'0 0.4
2016-Apr-23 21:00N 19°45' E 129°42'2 0.5
2016-Apr-23 18:00N 19°44' E 129°44'0 0.0
2016-Apr-23 17:00N 19°44' E 129°44'3 3.2
2016-Apr-23 16:00N 19°43' E 129°46'  

Dump ship's entire track history